sensor_id;sensor_type;location;lat;lon;timestamp;pressure;altitude;pressure_sealevel;temperature;humidity
27705;BME280;15109;50.992;6.918;2023-02-02T00:02:00;101526.47;;;8.10;100.00
27705;BME280;15109;50.992;6.918;2023-02-02T00:05:21;101520.31;;;8.08;100.00
27705;BME280;15109;50.992;6.918;2023-02-02T00:08:41;101523.16;;;8.07;100.00
27705;BME280;15109;50.992;6.918;2023-02-02T00:12:02;101522.16;;;8.08;100.00
27705;BME280;15109;50.992;6.918;2023-02-02T00:15:24;101520.16;;;8.10;100.00
27705;BME280;15109;50.992;6.918;2023-02-02T00:18:45;101517.44;;;8.10;100.00
27705;BME280;15109;50.992;6.918;2023-02-02T00:22:06;101513.84;;;8.09;100.00
27705;BME280;15109;50.992;6.918;2023-02-02T00:25:27;101525.75;;;8.08;100.00
27705;BME280;15109;50.992;6.918;2023-02-02T00:28:48;101522.03;;;8.09;100.00
27705;BME280;15109;50.992;6.918;2023-02-02T00:32:08;101509.28;;;8.10;100.00
27705;BME280;15109;50.992;6.918;2023-02-02T00:35:29;101513.00;;;8.09;100.00
27705;BME280;15109;50.992;6.918;2023-02-02T00:38:50;101507.41;;;8.10;100.00
27705;BME280;15109;50.992;6.918;2023-02-02T00:42:12;101510.28;;;8.09;100.00
27705;BME280;15109;50.992;6.918;2023-02-02T00:45:33;101510.81;;;8.12;100.00
27705;BME280;15109;50.992;6.918;2023-02-02T00:48:54;101500.19;;;8.19;100.00
27705;BME280;15109;50.992;6.918;2023-02-02T00:52:14;101501.19;;;8.18;100.00
27705;BME280;15109;50.992;6.918;2023-02-02T00:55:36;101500.88;;;8.21;100.00
27705;BME280;15109;50.992;6.918;2023-02-02T00:58:58;101497.28;;;8.20;100.00
27705;BME280;15109;50.992;6.918;2023-02-02T01:02:20;101499.03;;;8.21;100.00
27705;BME280;15109;50.992;6.918;2023-02-02T01:05:41;101495.44;;;8.21;100.00
27705;BME280;15109;50.992;6.918;2023-02-02T01:09:02;101501.06;;;8.19;100.00
27705;BME280;15109;50.992;6.918;2023-02-02T01:12:24;101499.16;;;8.20;100.00
27705;BME280;15109;50.992;6.918;2023-02-02T01:15:45;101508.06;;;8.22;100.00
27705;BME280;15109;50.992;6.918;2023-02-02T01:19:06;101505.31;;;8.22;100.00
27705;BME280;15109;50.992;6.918;2023-02-02T01:22:27;101517.09;;;8.23;100.00
27705;BME280;15109;50.992;6.918;2023-02-02T01:25:56;101510.63;;;8.24;100.00
27705;BME280;15109;50.992;6.918;2023-02-02T01:29:19;101517.41;;;8.19;100.00
27705;BME280;15109;50.992;6.918;2023-02-02T01:32:41;101531.72;;;8.21;100.00
27705;BME280;15109;50.992;6.918;2023-02-02T01:36:03;101530.72;;;8.23;100.00
27705;BME280;15109;50.992;6.918;2023-02-02T01:39:25;101520.72;;;8.13;100.00
27705;BME280;15109;50.992;6.918;2023-02-02T01:42:46;101529.47;;;8.07;100.00
27705;BME280;15109;50.992;6.918;2023-02-02T01:46:11;101525.34;;;8.03;100.00
27705;BME280;15109;50.992;6.918;2023-02-02T01:49:35;101531.84;;;7.93;100.00
27705;BME280;15109;50.992;6.918;2023-02-02T01:52:58;101535.72;;;7.90;100.00
27705;BME280;15109;50.992;6.918;2023-02-02T01:56:25;101547.19;;;7.94;100.00
27705;BME280;15109;50.992;6.918;2023-02-02T01:59:49;101552.91;;;7.91;100.00
27705;BME280;15109;50.992;6.918;2023-02-02T02:03:13;101546.47;;;7.92;100.00
27705;BME280;15109;50.992;6.918;2023-02-02T02:06:34;101557.38;;;7.92;100.00
27705;BME280;15109;50.992;6.918;2023-02-02T02:09:56;101555.19;;;7.95;100.00
27705;BME280;15109;50.992;6.918;2023-02-02T02:13:17;101556.06;;;7.96;100.00
27705;BME280;15109;50.992;6.918;2023-02-02T02:16:42;101547.88;;;7.96;100.00
27705;BME280;15109;50.992;6.918;2023-02-02T02:28:00;101538.72;;;7.97;100.00
27705;BME280;15109;50.992;6.918;2023-02-02T02:38:50;101521.66;;;7.95;100.00
27705;BME280;15109;50.992;6.918;2023-02-02T02:42:24;101514.53;;;7.94;100.00
27705;BME280;15109;50.992;6.918;2023-02-02T02:45:47;101527.50;;;8.00;100.00
27705;BME280;15109;50.992;6.918;2023-02-02T02:49:09;101521.75;;;8.03;100.00
27705;BME280;15109;50.992;6.918;2023-02-02T02:52:32;101520.63;;;8.05;100.00
27705;BME280;15109;50.992;6.918;2023-02-02T02:59:28;101529.34;;;8.09;100.00
27705;BME280;15109;50.992;6.918;2023-02-02T03:02:58;101531.34;;;8.07;100.00
27705;BME280;15109;50.992;6.918;2023-02-02T03:06:57;101533.22;;;8.06;100.00
27705;BME280;15109;50.992;6.918;2023-02-02T03:10:10;101538.81;;;8.05;100.00
27705;BME280;15109;50.992;6.918;2023-02-02T03:13:33;101533.69;;;8.02;100.00
27705;BME280;15109;50.992;6.918;2023-02-02T03:16:54;101542.84;;;8.01;100.00
27705;BME280;15109;50.992;6.918;2023-02-02T03:20:15;101533.09;;;7.98;100.00
27705;BME280;15109;50.992;6.918;2023-02-02T03:23:36;101540.72;;;7.95;100.00
27705;BME280;15109;50.992;6.918;2023-02-02T03:26:58;101548.88;;;7.95;100.00
27705;BME280;15109;50.992;6.918;2023-02-02T03:30:19;101551.47;;;7.96;100.00
27705;BME280;15109;50.992;6.918;2023-02-02T03:33:41;101542.03;;;7.91;100.00
27705;BME280;15109;50.992;6.918;2023-02-02T03:37:02;101543.59;;;7.93;100.00
27705;BME280;15109;50.992;6.918;2023-02-02T03:40:23;101552.06;;;7.90;100.00
27705;BME280;15109;50.992;6.918;2023-02-02T03:43:44;101546.38;;;7.84;100.00
27705;BME280;15109;50.992;6.918;2023-02-02T03:47:05;101552.81;;;7.83;100.00
27705;BME280;15109;50.992;6.918;2023-02-02T03:50:25;101550.09;;;7.83;100.00
27705;BME280;15109;50.992;6.918;2023-02-02T03:53:46;101552.50;;;7.86;100.00
27705;BME280;15109;50.992;6.918;2023-02-02T03:57:07;101548.94;;;7.85;100.00
27705;BME280;15109;50.992;6.918;2023-02-02T04:00:28;101550.53;;;7.78;100.00
27705;BME280;15109;50.992;6.918;2023-02-02T04:03:50;101554.13;;;7.79;100.00
27705;BME280;15109;50.992;6.918;2023-02-02T04:07:11;101550.69;;;7.77;100.00
27705;BME280;15109;50.992;6.918;2023-02-02T04:10:32;101554.56;;;7.74;100.00
27705;BME280;15109;50.992;6.918;2023-02-02T04:13:54;101560.31;;;7.71;100.00
27705;BME280;15109;50.992;6.918;2023-02-02T04:17:16;101560.13;;;7.72;100.00
27705;BME280;15109;50.992;6.918;2023-02-02T04:20:37;101565.56;;;7.72;100.00
27705;BME280;15109;50.992;6.918;2023-02-02T04:23:58;101552.69;;;7.74;100.00
27705;BME280;15109;50.992;6.918;2023-02-02T04:27:20;101560.13;;;7.72;100.00
27705;BME280;15109;50.992;6.918;2023-02-02T04:30:41;101565.44;;;7.74;100.00
27705;BME280;15109;50.992;6.918;2023-02-02T04:34:02;101560.13;;;7.72;100.00
27705;BME280;15109;50.992;6.918;2023-02-02T04:37:23;101568.91;;;7.76;100.00
27705;BME280;15109;50.992;6.918;2023-02-02T04:40:46;101571.63;;;7.76;100.00
27705;BME280;15109;50.992;6.918;2023-02-02T04:44:11;101574.03;;;7.79;100.00
27705;BME280;15109;50.992;6.918;2023-02-02T04:47:33;101580.66;;;7.77;100.00
27705;BME280;15109;50.992;6.918;2023-02-02T04:51:02;101577.75;;;7.78;100.00
27705;BME280;15109;50.992;6.918;2023-02-02T04:54:25;101582.34;;;7.78;100.00
27705;BME280;15109;50.992;6.918;2023-02-02T04:57:47;101590.66;;;7.76;100.00
27705;BME280;15109;50.992;6.918;2023-02-02T05:01:12;101574.91;;;7.70;100.00
27705;BME280;15109;50.992;6.918;2023-02-02T05:04:33;101587.78;;;7.68;100.00
27705;BME280;15109;50.992;6.918;2023-02-02T05:07:55;101580.50;;;7.68;100.00
27705;BME280;15109;50.992;6.918;2023-02-02T05:11:17;101578.81;;;7.67;100.00
27705;BME280;15109;50.992;6.918;2023-02-02T05:14:40;101575.34;;;7.65;100.00
27705;BME280;15109;50.992;6.918;2023-02-02T05:18:03;101581.66;;;7.66;100.00
27705;BME280;15109;50.992;6.918;2023-02-02T05:21:25;101595.13;;;7.67;100.00
27705;BME280;15109;50.992;6.918;2023-02-02T05:24:46;101592.69;;;7.64;100.00
27705;BME280;15109;50.992;6.918;2023-02-02T05:28:07;101592.53;;;7.66;100.00
27705;BME280;15109;50.992;6.918;2023-02-02T05:31:28;101585.06;;;7.68;100.00
27705;BME280;15109;50.992;6.918;2023-02-02T05:34:51;101581.22;;;7.70;100.00
27705;BME280;15109;50.992;6.918;2023-02-02T05:38:13;101576.78;;;7.69;100.00
27705;BME280;15109;50.992;6.918;2023-02-02T05:41:34;101564.88;;;7.70;100.00
27705;BME280;15109;50.992;6.918;2023-02-02T05:44:55;101576.63;;;7.71;100.00
27705;BME280;15109;50.992;6.918;2023-02-02T05:48:16;101572.91;;;7.72;100.00
27705;BME280;15109;50.992;6.918;2023-02-02T05:51:38;101579.63;;;7.68;100.00
27705;BME280;15109;50.992;6.918;2023-02-02T05:55:02;101572.31;;;7.68;100.00
27705;BME280;15109;50.992;6.918;2023-02-02T05:58:23;101568.06;;;7.66;100.00
27705;BME280;15109;50.992;6.918;2023-02-02T06:01:44;101563.31;;;7.68;100.00
27705;BME280;15109;50.992;6.918;2023-02-02T06:05:06;101567.50;;;7.62;100.00
27705;BME280;15109;50.992;6.918;2023-02-02T06:08:28;101567.50;;;7.62;100.00
27705;BME280;15109;50.992;6.918;2023-02-02T06:11:48;101580.94;;;7.64;100.00
27705;BME280;15109;50.992;6.918;2023-02-02T06:15:10;101589.25;;;7.62;100.00
27705;BME280;15109;50.992;6.918;2023-02-02T06:18:33;101596.56;;;7.62;100.00
27705;BME280;15109;50.992;6.918;2023-02-02T06:21:54;101603.44;;;7.66;100.00
27705;BME280;15109;50.992;6.918;2023-02-02T06:25:14;101599.97;;;7.64;100.00
27705;BME280;15109;50.992;6.918;2023-02-02T06:28:35;101607.72;;;7.68;100.00
27705;BME280;15109;50.992;6.918;2023-02-02T06:31:56;101615.00;;;7.68;100.00
27705;BME280;15109;50.992;6.918;2023-02-02T06:35:18;101608.44;;;7.70;100.00
27705;BME280;15109;50.992;6.918;2023-02-02T06:38:39;101631.78;;;7.73;100.00
27705;BME280;15109;50.992;6.918;2023-02-02T06:42:00;101638.38;;;7.70;100.00
27705;BME280;15109;50.992;6.918;2023-02-02T06:45:20;101618.88;;;7.75;100.00
27705;BME280;15109;50.992;6.918;2023-02-02T06:48:42;101620.63;;;7.76;100.00
27705;BME280;15109;50.992;6.918;2023-02-02T06:52:03;101612.59;;;7.74;100.00
27705;BME280;15109;50.992;6.918;2023-02-02T06:55:24;101614.31;;;7.75;100.00
27705;BME280;15109;50.992;6.918;2023-02-02T06:58:45;101610.72;;;7.75;100.00
27705;BME280;15109;50.992;6.918;2023-02-02T07:02:08;101625.03;;;7.77;100.00
27705;BME280;15109;50.992;6.918;2023-02-02T07:05:30;101617.03;;;7.75;100.00
27705;BME280;15109;50.992;6.918;2023-02-02T07:08:51;101624.47;;;7.73;100.00
27705;BME280;15109;50.992;6.918;2023-02-02T07:12:13;101639.69;;;7.76;100.00
27705;BME280;15109;50.992;6.918;2023-02-02T07:15:37;101635.22;;;7.75;100.00
27705;BME280;15109;50.992;6.918;2023-02-02T07:18:58;101637.81;;;7.77;100.00
27705;BME280;15109;50.992;6.918;2023-02-02T07:22:19;101638.81;;;7.75;100.00
27705;BME280;15109;50.992;6.918;2023-02-02T07:25:42;101651.97;;;7.80;100.00
27705;BME280;15109;50.992;6.918;2023-02-02T07:29:04;101657.69;;;7.77;100.00
27705;BME280;15109;50.992;6.918;2023-02-02T07:32:25;101651.69;;;7.83;100.00
27705;BME280;15109;50.992;6.918;2023-02-02T07:35:46;101655.72;;;7.79;100.00
27705;BME280;15109;50.992;6.918;2023-02-02T07:39:07;101658.00;;;7.84;100.00
27705;BME280;15109;50.992;6.918;2023-02-02T07:42:28;101652.53;;;7.84;100.00
27705;BME280;15109;50.992;6.918;2023-02-02T07:45:48;101667.03;;;7.84;100.00
27705;BME280;15109;50.992;6.918;2023-02-02T07:49:11;101668.31;;;7.80;100.00
27705;BME280;15109;50.992;6.918;2023-02-02T07:52:32;101663.75;;;7.81;100.00
27705;BME280;15109;50.992;6.918;2023-02-02T07:55:53;101665.44;;;7.82;100.00
27705;BME280;15109;50.992;6.918;2023-02-02T07:59:14;101660.59;;;7.85;100.00
27705;BME280;15109;50.992;6.918;2023-02-02T08:02:35;101668.75;;;7.85;100.00
27705;BME280;15109;50.992;6.918;2023-02-02T08:05:56;101670.59;;;7.85;100.00
27705;BME280;15109;50.992;6.918;2023-02-02T08:09:19;101664.44;;;7.83;100.00
27705;BME280;15109;50.992;6.918;2023-02-02T08:12:40;101664.72;;;7.80;100.00
27705;BME280;15109;50.992;6.918;2023-02-02T08:16:01;101659.13;;;7.81;100.00
27705;BME280;15109;50.992;6.918;2023-02-02T08:19:22;101661.56;;;7.84;100.00
27705;BME280;15109;50.992;6.918;2023-02-02T08:22:43;101666.59;;;7.79;100.00
27705;BME280;15109;50.992;6.918;2023-02-02T08:26:11;101676.06;;;7.85;100.00
27705;BME280;15109;50.992;6.918;2023-02-02T08:29:32;101678.34;;;7.80;100.00
27705;BME280;15109;50.992;6.918;2023-02-02T08:32:53;101674.91;;;7.78;100.00
27705;BME280;15109;50.992;6.918;2023-02-02T08:36:19;101681.19;;;7.78;100.00
27705;BME280;15109;50.992;6.918;2023-02-02T08:39:41;101680.06;;;7.81;100.00
27705;BME280;15109;50.992;6.918;2023-02-02T08:43:02;101686.09;;;7.84;100.00
27705;BME280;15109;50.992;6.918;2023-02-02T08:46:23;101692.22;;;7.86;100.00
27705;BME280;15109;50.992;6.918;2023-02-02T08:49:45;101690.66;;;7.84;100.00
27705;BME280;15109;50.992;6.918;2023-02-02T08:53:07;101689.78;;;7.93;100.00
27705;BME280;15109;50.992;6.918;2023-02-02T08:56:28;101700.94;;;7.90;100.00
27705;BME280;15109;50.992;6.918;2023-02-02T08:59:49;101696.53;;;7.89;100.00
27705;BME280;15109;50.992;6.918;2023-02-02T09:03:09;101697.78;;;7.94;100.00
27705;BME280;15109;50.992;6.918;2023-02-02T09:06:36;101702.41;;;7.94;100.00
27705;BME280;15109;50.992;6.918;2023-02-02T09:09:58;101704.84;;;7.97;100.00
27705;BME280;15109;50.992;6.918;2023-02-02T09:13:20;101704.66;;;7.98;100.00
27705;BME280;15109;50.992;6.918;2023-02-02T09:16:41;101708.97;;;8.01;100.00
27705;BME280;15109;50.992;6.918;2023-02-02T09:20:04;101726.88;;;8.03;100.00
27705;BME280;15109;50.992;6.918;2023-02-02T09:23:25;101725.88;;;8.04;100.00
27705;BME280;15109;50.992;6.918;2023-02-02T09:26:46;101732.63;;;8.00;100.00
27705;BME280;15109;50.992;6.918;2023-02-02T09:30:08;101735.78;;;8.05;100.00
27705;BME280;15109;50.992;6.918;2023-02-02T09:33:30;101729.34;;;8.06;100.00
27705;BME280;15109;50.992;6.918;2023-02-02T09:36:51;101738.34;;;8.07;100.00
27705;BME280;15109;50.992;6.918;2023-02-02T09:40:17;101750.53;;;8.03;100.00
27705;BME280;15109;50.992;6.918;2023-02-02T09:50:46;101772.91;;;7.97;100.00
27705;BME280;15109;50.992;6.918;2023-02-02T09:54:12;101776.50;;;7.97;100.00
27705;BME280;15109;50.992;6.918;2023-02-02T09:57:38;101782.66;;;8.09;100.00
27705;BME280;15109;50.992;6.918;2023-02-02T10:01:15;101797.44;;;7.97;100.00
27705;BME280;15109;50.992;6.918;2023-02-02T10:04:41;101802.72;;;7.89;100.00
27705;BME280;15109;50.992;6.918;2023-02-02T10:08:04;101805.72;;;7.86;100.00
27705;BME280;15109;50.992;6.918;2023-02-02T10:11:36;101802.56;;;7.90;100.00
27705;BME280;15109;50.992;6.918;2023-02-02T10:18:27;101806.72;;;8.04;100.00
27705;BME280;15109;50.992;6.918;2023-02-02T10:22:03;101812.47;;;8.01;100.00
27705;BME280;15109;50.992;6.918;2023-02-02T10:25:27;101810.88;;;8.08;100.00
27705;BME280;15109;50.992;6.918;2023-02-02T10:32:13;101818.63;;;8.12;100.00
27705;BME280;15109;50.992;6.918;2023-02-02T10:35:44;101834.66;;;8.15;100.00
27705;BME280;15109;50.992;6.918;2023-02-02T10:39:14;101838.25;;;8.16;100.00
27705;BME280;15109;50.992;6.918;2023-02-02T10:46:38;101850.03;;;8.16;100.00
27705;BME280;15109;50.992;6.918;2023-02-02T10:50:06;101837.13;;;8.28;100.00
27705;BME280;15109;50.992;6.918;2023-02-02T10:53:30;101840.28;;;8.33;100.00
27705;BME280;15109;50.992;6.918;2023-02-02T10:56:53;101838.28;;;8.35;100.00
27705;BME280;15109;50.992;6.918;2023-02-02T11:03:43;101832.28;;;8.41;100.00
27705;BME280;15109;50.992;6.918;2023-02-02T11:07:04;101840.59;;;8.49;100.00
27705;BME280;15109;50.992;6.918;2023-02-02T11:10:26;101831.25;;;8.52;100.00
27705;BME280;15109;50.992;6.918;2023-02-02T11:14:00;101835.53;;;8.54;100.00
27705;BME280;15109;50.992;6.918;2023-02-02T11:17:23;101841.41;;;8.59;100.00
27705;BME280;15109;50.992;6.918;2023-02-02T11:20:45;101834.38;;;8.67;100.00
27705;BME280;15109;50.992;6.918;2023-02-02T11:24:19;101837.66;;;8.70;100.00
27705;BME280;15109;50.992;6.918;2023-02-02T11:27:41;101838.66;;;8.69;100.00
27705;BME280;15109;50.992;6.918;2023-02-02T11:31:02;101847.56;;;8.71;100.00
27705;BME280;15109;50.992;6.918;2023-02-02T11:34:24;101845.53;;;8.73;100.00
27705;BME280;15109;50.992;6.918;2023-02-02T11:37:56;101846.53;;;8.72;100.00
27705;BME280;15109;50.992;6.918;2023-02-02T11:41:17;101849.84;;;8.76;100.00
27705;BME280;15109;50.992;6.918;2023-02-02T11:44:38;101842.81;;;8.73;100.00
27705;BME280;15109;50.992;6.918;2023-02-02T11:48:02;101844.09;;;8.79;100.00
27705;BME280;15109;50.992;6.918;2023-02-02T11:51:25;101845.38;;;8.84;100.00
27705;BME280;15109;50.992;6.918;2023-02-02T11:54:48;101844.22;;;8.87;100.00
27705;BME280;15109;50.992;6.918;2023-02-02T11:58:57;101845.94;;;8.88;100.00
27705;BME280;15109;50.992;6.918;2023-02-02T12:05:49;101826.97;;;8.96;100.00
27705;BME280;15109;50.992;6.918;2023-02-02T12:09:11;101821.19;;;8.99;100.00
27705;BME280;15109;50.992;6.918;2023-02-02T12:12:39;101834.84;;;8.99;100.00
27705;BME280;15109;50.992;6.918;2023-02-02T12:19:40;101816.56;;;9.09;100.00
27705;BME280;15109;50.992;6.918;2023-02-02T12:26:41;101823.44;;;9.13;100.00
27705;BME280;15109;50.992;6.918;2023-02-02T12:30:18;101828.75;;;9.15;100.00
27705;BME280;15109;50.992;6.918;2023-02-02T12:33:45;101823.44;;;9.13;100.00
27705;BME280;15109;50.992;6.918;2023-02-02T12:48:18;101821.88;;;9.38;100.00
27705;BME280;15109;50.992;6.918;2023-02-02T12:55:49;101824.88;;;9.62;100.00
27705;BME280;15109;50.992;6.918;2023-02-02T13:02:26;101817.06;;;9.49;100.00
27705;BME280;15109;50.992;6.918;2023-02-02T13:13:01;101838.91;;;9.49;100.00
27705;BME280;15109;50.992;6.918;2023-02-02T13:16:24;101832.97;;;9.54;100.00
27705;BME280;15109;50.992;6.918;2023-02-02T13:19:48;101839.41;;;9.63;100.00
27705;BME280;15109;50.992;6.918;2023-02-02T13:23:14;101830.53;;;9.61;100.00
27705;BME280;15109;50.992;6.918;2023-02-02T13:26:42;101842.72;;;9.66;100.00
27705;BME280;15109;50.992;6.918;2023-02-02T13:30:13;101839.19;;;9.74;100.00
27705;BME280;15109;50.992;6.918;2023-02-02T13:33:37;101848.53;;;9.71;100.00
27705;BME280;15109;50.992;6.918;2023-02-02T13:36:59;101847.72;;;9.71;100.00
27705;BME280;15109;50.992;6.918;2023-02-02T13:40:29;101835.94;;;9.70;100.00
27705;BME280;15109;50.992;6.918;2023-02-02T13:43:59;101839.34;;;9.72;100.00
27705;BME280;15109;50.992;6.918;2023-02-02T13:47:22;101833.28;;;9.78;100.00
27705;BME280;15109;50.992;6.918;2023-02-02T13:51:12;101835.34;;;9.67;100.00
27705;BME280;15109;50.992;6.918;2023-02-02T14:01:46;101840.50;;;9.52;100.00
27705;BME280;15109;50.992;6.918;2023-02-02T14:05:19;101839.34;;;9.45;100.00
27705;BME280;15109;50.992;6.918;2023-02-02T14:12:15;101844.34;;;9.49;100.00
27705;BME280;15109;50.992;6.918;2023-02-02T14:15:48;101850.84;;;9.48;100.00
27705;BME280;15109;50.992;6.918;2023-02-02T14:19:15;101839.94;;;9.48;100.00
27705;BME280;15109;50.992;6.918;2023-02-02T14:22:38;101839.03;;;9.57;100.00
27705;BME280;15109;50.992;6.918;2023-02-02T14:26:03;101849.94;;;9.57;100.00
27705;BME280;15109;50.992;6.918;2023-02-02T14:32:51;101841.59;;;9.59;100.00
27705;BME280;15109;50.992;6.918;2023-02-02T14:36:13;101839.84;;;9.58;100.00
27705;BME280;15109;50.992;6.918;2023-02-02T14:39:36;101848.63;;;9.62;100.00
27705;BME280;15109;50.992;6.918;2023-02-02T14:46:51;101843.00;;;9.63;100.00
27705;BME280;15109;50.992;6.918;2023-02-02T14:50:39;101849.88;;;9.67;100.00
27705;BME280;15109;50.992;6.918;2023-02-02T14:53:56;101853.78;;;9.65;100.00
27705;BME280;15109;50.992;6.918;2023-02-02T14:57:22;101863.69;;;9.66;100.00
27705;BME280;15109;50.992;6.918;2023-02-02T15:00:45;101860.25;;;9.64;100.00
27705;BME280;15109;50.992;6.918;2023-02-02T15:07:51;101882.09;;;9.64;100.00
27705;BME280;15109;50.992;6.918;2023-02-02T15:11:12;101869.84;;;9.68;100.00
27705;BME280;15109;50.992;6.918;2023-02-02T15:14:50;101881.22;;;9.63;100.00
27705;BME280;15109;50.992;6.918;2023-02-02T15:18:17;101878.81;;;9.60;100.00
27705;BME280;15109;50.992;6.918;2023-02-02T15:21:42;101887.84;;;9.61;100.00
27705;BME280;15109;50.992;6.918;2023-02-02T15:32:15;101891.88;;;9.66;100.00
27705;BME280;15109;50.992;6.918;2023-02-02T15:35:37;101884.69;;;9.65;100.00
27705;BME280;15109;50.992;6.918;2023-02-02T15:39:00;101887.53;;;9.64;100.00
27705;BME280;15109;50.992;6.918;2023-02-02T15:42:44;101892.47;;;9.60;100.00
27705;BME280;15109;50.992;6.918;2023-02-02T15:46:18;101901.34;;;9.62;100.00
27705;BME280;15109;50.992;6.918;2023-02-02T15:49:43;101894.88;;;9.63;100.00
27705;BME280;15109;50.992;6.918;2023-02-02T15:53:05;101905.97;;;9.62;100.00
27705;BME280;15109;50.992;6.918;2023-02-02T15:56:34;101903.94;;;9.64;100.00
27705;BME280;15109;50.992;6.918;2023-02-02T15:59:56;101900.50;;;9.62;100.00
27705;BME280;15109;50.992;6.918;2023-02-02T16:03:18;101913.13;;;9.63;100.00
27705;BME280;15109;50.992;6.918;2023-02-02T16:06:40;101914.44;;;9.58;100.00
27705;BME280;15109;50.992;6.918;2023-02-02T16:10:03;101913.59;;;9.58;100.00
27705;BME280;15109;50.992;6.918;2023-02-02T16:13:25;101925.09;;;9.62;100.00
27705;BME280;15109;50.992;6.918;2023-02-02T16:16:46;101925.91;;;9.62;100.00
27705;BME280;15109;50.992;6.918;2023-02-02T16:20:10;101929.81;;;9.60;100.00
27705;BME280;15109;50.992;6.918;2023-02-02T16:23:33;101928.28;;;9.57;100.00
27705;BME280;15109;50.992;6.918;2023-02-02T16:26:56;101936.28;;;9.58;100.00
27705;BME280;15109;50.992;6.918;2023-02-02T16:30:31;101929.13;;;9.57;100.00
27705;BME280;15109;50.992;6.918;2023-02-02T16:33:52;101934.41;;;9.59;100.00
27705;BME280;15109;50.992;6.918;2023-02-02T16:37:14;101940.06;;;9.57;100.00
27705;BME280;15109;50.992;6.918;2023-02-02T16:40:36;101941.75;;;9.58;100.00
27705;BME280;15109;50.992;6.918;2023-02-02T16:44:26;101948.38;;;9.56;100.00
27705;BME280;15109;50.992;6.918;2023-02-02T16:47:37;101952.53;;;9.60;100.00
27705;BME280;15109;50.992;6.918;2023-02-02T16:54:25;101961.03;;;9.57;100.00
27705;BME280;15109;50.992;6.918;2023-02-02T16:57:47;101958.13;;;9.58;100.00
27705;BME280;15109;50.992;6.918;2023-02-02T17:01:09;101956.25;;;9.59;100.00
27705;BME280;15109;50.992;6.918;2023-02-02T17:04:33;101963.31;;;9.62;100.00
27705;BME280;15109;50.992;6.918;2023-02-02T17:07:56;101962.44;;;9.61;100.00
27705;BME280;15109;50.992;6.918;2023-02-02T17:11:24;101966.50;;;9.57;100.00
27705;BME280;15109;50.992;6.918;2023-02-02T17:14:50;101972.97;;;9.56;100.00
27705;BME280;15109;50.992;6.918;2023-02-02T17:18:13;101972.09;;;9.55;100.00
27705;BME280;15109;50.992;6.918;2023-02-02T17:21:35;101969.50;;;9.54;100.00
27705;BME280;15109;50.992;6.918;2023-02-02T17:24:55;101976.13;;;9.51;100.00
27705;BME280;15109;50.992;6.918;2023-02-02T17:28:18;101975.28;;;9.41;100.00
27705;BME280;15109;50.992;6.918;2023-02-02T17:31:41;101983.94;;;9.37;100.00
27705;BME280;15109;50.992;6.918;2023-02-02T17:35:06;101975.34;;;9.32;100.00
27705;BME280;15109;50.992;6.918;2023-02-02T17:38:31;101982.25;;;9.26;100.00
27705;BME280;15109;50.992;6.918;2023-02-02T17:41:53;101989.00;;;9.22;100.00
27705;BME280;15109;50.992;6.918;2023-02-02T17:45:16;102004.41;;;9.14;100.00
27705;BME280;15109;50.992;6.918;2023-02-02T17:48:37;101988.59;;;9.07;100.00
27705;BME280;15109;50.992;6.918;2023-02-02T17:51:58;101998.38;;;9.00;100.00
27705;BME280;15109;50.992;6.918;2023-02-02T17:55:22;102001.25;;;8.99;100.00
27705;BME280;15109;50.992;6.918;2023-02-02T17:58:44;102008.72;;;8.97;100.00
27705;BME280;15109;50.992;6.918;2023-02-02T18:02:05;102014.31;;;8.95;100.00
27705;BME280;15109;50.992;6.918;2023-02-02T18:05:26;102015.75;;;8.90;100.00
27705;BME280;15109;50.992;6.918;2023-02-02T18:08:46;102016.19;;;8.85;100.00
27705;BME280;15109;50.992;6.918;2023-02-02T18:12:07;102013.31;;;8.87;100.00
27705;BME280;15109;50.992;6.918;2023-02-02T18:15:29;102020.75;;;8.85;100.00
27705;BME280;15109;50.992;6.918;2023-02-02T18:18:49;102024.66;;;8.82;100.00
27705;BME280;15109;50.992;6.918;2023-02-02T18:22:10;102027.69;;;8.79;100.00
27705;BME280;15109;50.992;6.918;2023-02-02T18:25:33;102033.56;;;8.75;100.00
27705;BME280;15109;50.992;6.918;2023-02-02T18:28:54;102031.97;;;8.72;100.00
27705;BME280;15109;50.992;6.918;2023-02-02T18:32:16;102039.28;;;8.72;100.00
27705;BME280;15109;50.992;6.918;2023-02-02T18:35:40;102024.22;;;8.68;100.00
27705;BME280;15109;50.992;6.918;2023-02-02T18:39:03;102019.63;;;8.68;100.00
27705;BME280;15109;50.992;6.918;2023-02-02T18:42:27;102019.91;;;8.65;100.00
27705;BME280;15109;50.992;6.918;2023-02-02T18:46:05;102011.00;;;8.63;100.00
27705;BME280;15109;50.992;6.918;2023-02-02T18:49:28;102014.59;;;8.63;100.00
27705;BME280;15109;50.992;6.918;2023-02-02T18:52:49;102015.47;;;8.64;100.00
27705;BME280;15109;50.992;6.918;2023-02-02T18:56:11;102010.88;;;8.64;100.00
27705;BME280;15109;50.992;6.918;2023-02-02T18:59:33;102008.16;;;8.64;100.00
27705;BME280;15109;50.992;6.918;2023-02-02T19:02:56;102006.16;;;8.67;100.00
27705;BME280;15109;50.992;6.918;2023-02-02T19:06:18;102010.44;;;8.69;100.00
27705;BME280;15109;50.992;6.918;2023-02-02T19:10:19;101999.41;;;8.71;100.00
27705;BME280;15109;50.992;6.918;2023-02-02T19:13:40;101993.78;;;8.72;100.00
27705;BME280;15109;50.992;6.918;2023-02-02T19:17:15;101994.53;;;8.74;100.00
27705;BME280;15109;50.992;6.918;2023-02-02T19:20:37;101994.22;;;8.77;100.00
27705;BME280;15109;50.992;6.918;2023-02-02T19:23:58;101986.03;;;8.77;100.00
27705;BME280;15109;50.992;6.918;2023-02-02T19:27:21;101994.78;;;8.81;100.00
27705;BME280;15109;50.992;6.918;2023-02-02T19:30:42;102004.41;;;8.85;100.00
27705;BME280;15109;50.992;6.918;2023-02-02T19:34:09;102012.16;;;8.89;100.00